Time;durP1;ratioP1;P1;durP2;ratioP2;P2;SDS_P1;SDS_P2;PMS_P1;PMS_P2;Temp;Humidity;BMP_temperature;BMP_pressure;BME280_temperature;BME280_humidity;BME280_pressure;Samples;Min_cycle;Max_cycle;Signal;HPM_P1;HPM_P2
2021/03/22 00:00:21;;;;;;;26.25;5.15;;;7.20;66.40;;;;;;5044831;28;20049;-75
2021/03/22 00:02:48;;;;;;;21.45;4.68;;;7.20;66.00;;;;;;5044738;28;20128;-75
2021/03/22 00:05:17;;;;;;;22.48;4.32;;;7.10;66.70;;;;;;5049163;28;20046;-74
2021/03/22 00:07:43;;;;;;;20.63;4.18;;;7.10;67.30;;;;;;5049584;28;20086;-75
2021/03/22 00:10:10;;;;;;;20.02;4.47;;;7.10;67.60;;;;;;5045629;28;20061;-74
2021/03/22 00:12:37;;;;;;;21.63;4.72;;;7.10;67.30;;;;;;5036414;28;20462;-74
2021/03/22 00:15:06;;;;;;;20.75;4.78;;;7.10;67.50;;;;;;5040101;28;20098;-76
2021/03/22 00:17:33;;;;;;;34.00;5.30;;;7.10;67.60;;;;;;5040973;28;20133;-75
2021/03/22 00:20:00;;;;;;;29.50;4.32;;;7.10;67.60;;;;;;5046905;28;20116;-75
2021/03/22 00:22:26;;;;;;;24.35;4.53;;;6.90;67.90;;;;;;5050363;28;20111;-74
2021/03/22 00:24:53;;;;;;;32.60;5.57;;;7.00;68.30;;;;;;5050559;28;20057;-74
2021/03/22 00:27:19;;;;;;;35.10;4.80;;;7.10;68.10;;;;;;5043196;28;20052;-74
2021/03/22 00:29:45;;;;;;;29.13;4.82;;;7.00;67.90;;;;;;5048984;28;20488;-75
2021/03/22 00:32:12;;;;;;;54.53;16.35;;;6.90;67.70;;;;;;5046444;28;20806;-75
2021/03/22 00:34:38;;;;;;;22.83;5.28;;;7.20;70.50;;;;;;5051938;28;20067;-75
2021/03/22 00:37:05;;;;;;;32.38;4.72;;;7.00;67.80;;;;;;5052770;28;20077;-75
2021/03/22 00:39:31;;;;;;;22.90;4.38;;;7.00;67.20;;;;;;5047722;28;20053;-75
2021/03/22 00:41:57;;;;;;;27.00;4.30;;;7.00;68.30;;;;;;5051028;28;20084;-75
2021/03/22 00:44:24;;;;;;;17.45;4.25;;;7.10;67.60;;;;;;5036186;28;20156;-74
2021/03/22 00:46:50;;;;;;;18.83;4.47;;;7.10;67.10;;;;;;5037506;28;20053;-75
2021/03/22 00:49:17;;;;;;;26.10;4.65;;;7.00;66.90;;;;;;5041902;28;20053;-74
2021/03/22 00:51:44;;;;;;;20.88;4.63;;;6.90;67.50;;;;;;5047355;28;20080;-74
2021/03/22 00:54:10;;;;;;;20.40;4.05;;;7.00;67.90;;;;;;5051070;28;20045;-74
2021/03/22 00:56:36;;;;;;;19.38;4.03;;;7.00;67.40;;;;;;5038169;28;20473;-74
2021/03/22 00:59:03;;;;;;;20.92;4.05;;;7.10;67.50;;;;;;5056712;28;20084;-73
2021/03/22 01:01:30;;;;;;;15.60;4.13;;;7.10;67.30;;;;;;5045669;28;20082;-74
2021/03/22 01:03:56;;;;;;;31.65;5.03;;;7.10;67.00;;;;;;5038222;28;20465;-74
2021/03/22 01:06:23;;;;;;;23.40;4.20;;;7.10;66.80;;;;;;5045422;28;20099;-74
2021/03/22 01:08:49;;;;;;;25.40;3.80;;;7.10;67.20;;;;;;5044117;28;20088;-75
2021/03/22 01:11:19;;;;;;;32.42;4.07;;;7.00;67.20;;;;;;5038152;28;20053;-75
2021/03/22 01:13:49;;;;;;;23.75;4.03;;;7.00;66.80;;;;;;5046526;28;20052;-75
2021/03/22 01:16:20;;;;;;;22.52;3.58;;;6.90;67.80;;;;;;5046242;28;20048;-75
2021/03/22 01:18:51;;;;;;;18.95;3.25;;;7.00;66.90;;;;;;5041793;28;20052;-75
2021/03/22 01:21:25;;;;;;;18.25;3.40;;;7.00;66.50;;;;;;5041215;28;20056;-75
2021/03/22 01:23:52;;;;;;;27.73;4.05;;;7.00;66.10;;;;;;5040882;28;20404;-75
2021/03/22 01:26:23;;;;;;;20.75;3.25;;;7.10;66.20;;;;;;5042912;28;20416;-75
2021/03/22 01:28:50;;;;;;;16.73;3.40;;;6.80;65.80;;;;;;5047935;28;20099;-75
2021/03/22 01:31:16;;;;;;;18.52;3.28;;;6.90;65.70;;;;;;5047299;28;20045;-75
2021/03/22 01:33:44;;;;;;;15.73;3.10;;;6.90;65.40;;;;;;5042044;28;20045;-75
2021/03/22 01:36:18;;;;;;;29.48;3.38;;;6.90;65.20;;;;;;5048127;28;20511;-75
2021/03/22 01:38:45;;;;;;;24.60;3.97;;;6.90;65.00;;;;;;5043993;28;20181;-75
2021/03/22 01:41:51;;;;;;;21.17;3.20;;;6.80;65.00;;;;;;5045163;28;20091;-75
2021/03/22 01:44:19;;;;;;;17.73;3.50;;;6.80;65.40;;;;;;5047817;28;20041;-75
2021/03/22 01:46:52;;;;;;;22.65;3.45;;;6.80;65.20;;;;;;5037642;28;20055;-75
2021/03/22 01:49:21;;;;;;;18.58;3.05;;;6.80;65.90;;;;;;5036528;28;20440;-74
2021/03/22 01:51:48;;;;;;;20.65;3.50;;;6.80;65.10;;;;;;5038932;28;20057;-75
2021/03/22 01:54:16;;;;;;;23.65;3.55;;;6.70;65.10;;;;;;5043174;28;20053;-76
2021/03/22 01:56:47;;;;;;;19.42;3.22;;;6.70;65.00;;;;;;5047054;28;20056;-74
2021/03/22 01:59:17;;;;;;;19.02;2.97;;;6.80;64.80;;;;;;5038001;28;20053;-74
2021/03/22 02:01:48;;;;;;;20.83;3.22;;;6.70;64.90;;;;;;5037022;28;20049;-74
2021/03/22 02:04:16;;;;;;;16.15;3.60;;;6.80;64.90;;;;;;5043210;28;20053;-74
2021/03/22 02:06:43;;;;;;;19.13;3.13;;;6.80;64.50;;;;;;5039077;28;20570;-74
2021/03/22 02:09:09;;;;;;;14.88;3.13;;;6.80;64.80;;;;;;5039399;28;20454;-74
2021/03/22 02:11:36;;;;;;;22.58;3.38;;;6.70;64.80;;;;;;5046844;28;20072;-74
2021/03/22 02:14:06;;;;;;;19.75;3.08;;;6.80;64.70;;;;;;5044111;28;20083;-74
2021/03/22 02:16:53;;;;;;;16.60;3.00;;;6.80;64.60;;;;;;5042027;28;20056;-75
2021/03/22 02:19:44;;;;;;;18.52;3.08;;;6.70;65.00;;;;;;5036531;28;20525;-75
2021/03/22 02:22:29;;;;;;;18.48;2.85;;;6.70;64.90;;;;;;5048124;28;20049;-75
2021/03/22 02:25:20;;;;;;;13.55;2.60;;;6.70;64.80;;;;;;5043525;28;20047;-75
2021/03/22 02:28:05;;;;;;;20.08;3.80;;;6.70;65.50;;;;;;5040502;28;20084;-75
2021/03/22 02:31:16;;;;;;;17.73;2.75;;;6.80;64.90;;;;;;5042245;28;20123;-74
2021/03/22 02:34:24;;;;;;;19.67;3.53;;;6.70;65.40;;;;;;5042758;28;20045;-75
2021/03/22 02:36:59;;;;;;;19.08;3.03;;;6.70;65.40;;;;;;5008956;28;20057;-74
2021/03/22 02:39:32;;;;;;;18.52;3.20;;;6.70;65.10;;;;;;5010940;28;20038;-74
2021/03/22 02:42:01;;;;;;;18.40;2.72;;;6.70;65.50;;;;;;5024782;28;20175;-75
2021/03/22 02:44:29;;;;;;;25.98;3.03;;;6.80;65.40;;;;;;5041615;28;20040;-75
2021/03/22 02:47:02;;;;;;;18.40;3.20;;;6.70;65.10;;;;;;5043253;28;20419;-74
2021/03/22 02:49:33;;;;;;;21.00;3.20;;;6.70;65.10;;;;;;5040300;28;20071;-75
2021/03/22 02:52:37;;;;;;;19.63;2.97;;;6.70;65.20;;;;;;5038687;28;20502;-75
2021/03/22 02:55:20;;;;;;;22.63;3.67;;;6.70;65.20;;;;;;5037434;28;20053;-75
2021/03/22 02:58:03;;;;;;;19.55;2.95;;;6.70;65.10;;;;;;5044028;28;20558;-75
2021/03/22 03:00:38;;;;;;;15.85;2.85;;;6.60;65.30;;;;;;5036220;28;20077;-75
2021/03/22 03:03:10;;;;;;;15.98;2.60;;;6.60;65.20;;;;;;5047984;28;20540;-74
2021/03/22 03:05:38;;;;;;;23.80;3.03;;;6.60;65.30;;;;;;5046683;28;20041;-74
2021/03/22 03:08:12;;;;;;;17.90;2.80;;;6.60;65.00;;;;;;5044880;28;20081;-75
2021/03/22 03:10:38;;;;;;;18.60;2.63;;;6.70;65.10;;;;;;5044137;28;20136;-75
2021/03/22 03:13:05;;;;;;;28.10;3.95;;;6.50;65.00;;;;;;5042179;28;20422;-75
2021/03/22 03:15:36;;;;;;;17.98;2.92;;;6.50;65.20;;;;;;5046653;28;20464;-75
2021/03/22 03:18:04;;;;;;;21.42;3.25;;;6.60;65.10;;;;;;5036386;28;20053;-75
2021/03/22 03:20:31;;;;;;;22.00;2.92;;;6.60;65.20;;;;;;5038733;28;20049;-75
2021/03/22 03:22:59;;;;;;;12.40;3.05;;;6.50;65.00;;;;;;5033497;28;20053;-75
2021/03/22 03:25:27;;;;;;;13.77;2.58;;;6.60;64.80;;;;;;5073888;28;20046;-75
2021/03/22 03:27:54;;;;;;;15.85;2.53;;;6.60;65.00;;;;;;5039935;28;20041;-75
2021/03/22 03:30:30;;;;;;;16.17;2.30;;;6.70;64.90;;;;;;5047529;28;20091;-75
2021/03/22 03:32:59;;;;;;;15.15;2.45;;;6.60;65.00;;;;;;5041240;28;20049;-75
2021/03/22 03:35:29;;;;;;;17.10;2.72;;;6.60;64.90;;;;;;5043767;28;20483;-75
2021/03/22 03:37:57;;;;;;;13.52;2.80;;;6.60;64.90;;;;;;5039700;28;20049;-74
2021/03/22 03:40:56;;;;;;;20.88;2.90;;;6.50;65.10;;;;;;5040023;28;20088;-74
2021/03/22 03:43:22;;;;;;;15.70;3.03;;;6.40;65.40;;;;;;5040283;28;20474;-75
2021/03/22 03:45:50;;;;;;;17.48;2.70;;;6.50;65.40;;;;;;5041525;28;20489;-74
2021/03/22 03:48:23;;;;;;;16.30;2.67;;;6.60;65.20;;;;;;5044377;28;20088;-74
2021/03/22 03:50:57;;;;;;;13.27;2.35;;;6.70;65.50;;;;;;5036908;28;20056;-74
2021/03/22 03:53:24;;;;;;;16.80;2.88;;;6.60;64.90;;;;;;5041479;28;20054;-74
2021/03/22 03:55:51;;;;;;;11.18;2.63;;;6.60;65.00;;;;;;5038650;28;20131;-75
2021/03/22 03:58:18;;;;;;;9.75;2.60;;;6.60;65.30;;;;;;5045567;28;20041;-74
2021/03/22 04:00:46;;;;;;;16.10;2.92;;;6.60;65.20;;;;;;5035817;28;20076;-74
2021/03/22 04:03:22;;;;;;;21.70;3.72;;;6.50;65.50;;;;;;5038098;28;20468;-74
2021/03/22 04:05:54;;;;;;;18.70;3.88;;;6.60;66.40;;;;;;5041348;28;20085;-75
2021/03/22 04:08:20;;;;;;;17.48;3.17;;;6.60;66.00;;;;;;5038315;28;20044;-75
2021/03/22 04:10:48;;;;;;;15.07;3.15;;;6.60;65.80;;;;;;5056090;28;20547;-75
2021/03/22 04:13:15;;;;;;;19.13;3.40;;;6.60;65.80;;;;;;5037697;28;20049;-75
2021/03/22 04:15:41;;;;;;;23.63;2.75;;;6.60;65.80;;;;;;5036554;28;20116;-76
2021/03/22 04:18:16;;;;;;;13.98;2.42;;;6.50;65.80;;;;;;5046610;28;20041;-76
2021/03/22 04:20:43;;;;;;;16.88;3.05;;;6.50;66.10;;;;;;5046005;28;20049;-75
2021/03/22 04:23:09;;;;;;;20.13;2.75;;;6.40;66.30;;;;;;5043447;28;20045;-76
2021/03/22 04:25:36;;;;;;;13.32;3.22;;;6.40;66.50;;;;;;5043497;28;20135;-75
2021/03/22 04:28:02;;;;;;;13.40;2.58;;;6.50;66.70;;;;;;5035228;28;20049;-76
2021/03/22 04:30:28;;;;;;;14.77;2.53;;;6.50;66.40;;;;;;5040164;28;20487;-75
2021/03/22 04:32:55;;;;;;;19.52;2.90;;;6.50;66.30;;;;;;5038324;28;20093;-75
2021/03/22 04:35:24;;;;;;;17.63;2.58;;;6.50;66.40;;;;;;5041397;28;20056;-75
2021/03/22 04:37:50;;;;;;;16.10;2.70;;;6.50;66.70;;;;;;5038293;28;20049;-75
2021/03/22 04:40:23;;;;;;;13.25;2.88;;;6.40;66.30;;;;;;5036742;28;20435;-75
2021/03/22 04:42:50;;;;;;;12.73;3.17;;;6.50;66.20;;;;;;5043859;28;20427;-75
2021/03/22 04:45:20;;;;;;;19.25;2.83;;;6.50;66.40;;;;;;5034306;28;20107;-75
2021/03/22 04:47:47;;;;;;;18.63;3.17;;;6.50;66.80;;;;;;5039623;28;20098;-75
2021/03/22 04:50:16;;;;;;;22.55;3.38;;;6.50;66.80;;;;;;5041019;28;20080;-75
2021/03/22 04:52:43;;;;;;;21.30;3.60;;;6.40;66.70;;;;;;5040842;28;20403;-75
2021/03/22 04:55:10;;;;;;;12.13;2.90;;;6.50;66.70;;;;;;5040087;28;20049;-75
2021/03/22 04:57:37;;;;;;;19.70;2.85;;;6.50;67.30;;;;;;5047779;28;20049;-75
2021/03/22 05:00:10;;;;;;;12.70;2.30;;;6.50;66.70;;;;;;5049754;28;20067;-75
2021/03/22 05:02:36;;;;;;;18.95;2.33;;;6.50;66.90;;;;;;5049596;28;20559;-75
2021/03/22 05:05:06;;;;;;;12.02;2.25;;;6.40;66.60;;;;;;5047167;28;20139;-75
2021/03/22 05:07:32;;;;;;;15.05;2.42;;;6.50;66.90;;;;;;5047430;28;20106;-75
2021/03/22 05:09:59;;;;;;;16.58;2.95;;;6.40;66.60;;;;;;5046274;28;20083;-77
2021/03/22 05:12:25;;;;;;;19.35;3.05;;;6.50;66.40;;;;;;5050957;28;20106;-76
2021/03/22 05:14:51;;;;;;;10.75;2.40;;;6.50;66.70;;;;;;5074608;28;20049;-75
2021/03/22 05:17:18;;;;;;;13.68;2.72;;;6.50;66.60;;;;;;5044824;28;20159;-75
2021/03/22 05:19:44;;;;;;;16.17;2.65;;;6.40;66.70;;;;;;5041504;28;20059;-76
2021/03/22 05:22:11;;;;;;;8.23;2.33;;;6.40;66.80;;;;;;5040444;28;20119;-75
2021/03/22 05:24:37;;;;;;;9.20;3.00;;;6.40;67.20;;;;;;5045186;28;20416;-75
2021/03/22 05:27:04;;;;;;;14.60;2.88;;;6.60;66.90;;;;;;5036864;28;20296;-75
2021/03/22 05:29:30;;;;;;;17.98;2.20;;;6.50;66.90;;;;;;5051422;28;20056;-75
2021/03/22 05:31:56;;;;;;;17.85;2.70;;;6.40;66.80;;;;;;5037191;28;20103;-74
2021/03/22 05:34:23;;;;;;;16.10;2.75;;;6.50;67.00;;;;;;5052745;28;20127;-75
2021/03/22 05:36:51;;;;;;;19.13;3.72;;;6.30;67.10;;;;;;5045436;28;20076;-74
2021/03/22 05:39:18;;;;;;;13.25;2.80;;;6.40;67.60;;;;;;5034199;28;20566;-74
2021/03/22 05:42:10;;;;;;;16.08;2.97;;;6.50;67.10;;;;;;5050268;28;20789;-74
2021/03/22 05:44:54;;;;;;;17.35;5.68;;;6.70;67.60;;;;;;5041876;28;20071;-74
2021/03/22 05:47:27;;;;;;;19.77;3.92;;;6.50;67.20;;;;;;5034300;28;20145;-74
2021/03/22 05:50:05;;;;;;;13.38;2.70;;;6.50;67.50;;;;;;5047930;28;20052;-75
2021/03/22 05:52:48;;;;;;;14.77;2.60;;;6.50;67.60;;;;;;5039315;28;20080;-74
2021/03/22 05:55:45;;;;;;;13.85;2.53;;;6.50;67.90;;;;;;5052527;28;20107;-74
2021/03/22 05:58:29;;;;;;;14.63;2.67;;;6.40;68.30;;;;;;5045332;28;20117;-74
2021/03/22 06:01:17;;;;;;;18.90;3.50;;;6.50;68.10;;;;;;5034874;28;20110;-74
2021/03/22 06:03:50;;;;;;;15.10;3.10;;;6.90;68.70;;;;;;5046657;28;20148;-74
2021/03/22 06:06:34;;;;;;;15.63;2.78;;;6.50;68.00;;;;;;5044225;28;20053;-74
2021/03/22 06:09:18;;;;;;;15.65;3.10;;;6.50;68.10;;;;;;5039296;28;20164;-74
2021/03/22 06:12:22;;;;;;;15.63;3.13;;;6.60;68.30;;;;;;5046367;28;20048;-74
2021/03/22 06:14:52;;;;;;;23.52;5.10;;;6.60;68.20;;;;;;5043163;28;20045;-74
2021/03/22 06:17:30;;;;;;;11.38;2.83;;;6.50;68.90;;;;;;5041906;28;20099;-74
2021/03/22 06:20:34;;;;;;;17.95;2.78;;;6.50;68.60;;;;;;5039915;28;20048;-74
2021/03/22 06:23:11;;;;;;;16.20;2.90;;;6.50;68.70;;;;;;5048256;28;20049;-74
2021/03/22 06:25:38;;;;;;;13.10;3.00;;;6.60;68.90;;;;;;5045200;28;20465;-74
2021/03/22 06:28:27;;;;;;;19.27;3.28;;;6.70;68.60;;;;;;5037919;28;20048;-74
2021/03/22 06:30:57;;;;;;;18.70;3.95;;;6.60;68.60;;;;;;5042014;28;20165;-75
2021/03/22 06:33:46;;;;;;;19.05;4.03;;;6.70;69.10;;;;;;5072164;28;20057;-75
2021/03/22 06:36:16;;;;;;;21.30;3.73;;;6.60;69.10;;;;;;5033161;28;20202;-75
2021/03/22 06:38:48;;;;;;;29.65;4.30;;;6.60;69.80;;;;;;5043066;28;20042;-75
2021/03/22 06:41:47;;;;;;;17.85;3.60;;;6.60;69.60;;;;;;5041031;28;20045;-75
2021/03/22 06:44:32;;;;;;;15.98;3.67;;;6.70;69.60;;;;;;5036970;28;20103;-74
2021/03/22 06:47:06;;;;;;;19.10;3.70;;;6.70;69.80;;;;;;5049846;28;20480;-74
2021/03/22 06:49:37;;;;;;;17.20;3.92;;;6.80;69.80;;;;;;5044268;28;20060;-75
2021/03/22 06:52:08;;;;;;;20.05;4.03;;;6.80;69.60;;;;;;5036918;28;20414;-74
2021/03/22 06:54:41;;;;;;;13.50;3.90;;;6.70;70.30;;;;;;5038324;28;20053;-74
2021/03/22 06:57:21;;;;;;;14.30;4.03;;;6.90;70.00;;;;;;5037394;28;20106;-75
2021/03/22 07:00:07;;;;;;;22.23;4.30;;;7.00;70.20;;;;;;5032707;28;20045;-74
2021/03/22 07:02:48;;;;;;;17.27;4.53;;;6.90;70.00;;;;;;5034759;28;20046;-76
2021/03/22 07:05:28;;;;;;;24.25;4.57;;;7.10;70.60;;;;;;5040683;28;20381;-75
2021/03/22 07:08:07;;;;;;;15.45;3.67;;;7.00;70.00;;;;;;5034109;28;20045;-75
2021/03/22 07:11:05;;;;;;;17.33;3.47;;;6.90;70.10;;;;;;5047850;28;20404;-74
2021/03/22 07:13:33;;;;;;;18.58;3.88;;;6.90;70.40;;;;;;5045952;28;20045;-75
2021/03/22 07:16:05;;;;;;;24.30;3.92;;;6.80;70.80;;;;;;5041607;28;20124;-75
2021/03/22 07:18:33;;;;;;;19.02;3.78;;;6.90;70.60;;;;;;5038787;28;20047;-76
2021/03/22 07:20:59;;;;;;;16.70;3.80;;;7.00;70.20;;;;;;5035990;28;20084;-76
2021/03/22 07:23:30;;;;;;;21.42;4.03;;;6.80;70.40;;;;;;5043572;28;20076;-76
2021/03/22 07:26:03;;;;;;;17.45;4.00;;;6.90;70.50;;;;;;5039767;28;20259;-75
2021/03/22 07:28:41;;;;;;;15.10;4.10;;;6.90;70.60;;;;;;5036190;28;20144;-75
2021/03/22 07:31:10;;;;;;;9.90;3.50;;;6.80;70.60;;;;;;5046282;28;20057;-75
2021/03/22 07:33:57;;;;;;;15.50;4.03;;;6.80;70.50;;;;;;5045709;28;20123;-76
2021/03/22 07:36:39;;;;;;;12.27;3.95;;;6.90;70.40;;;;;;5045844;28;20084;-76
2021/03/22 07:39:18;;;;;;;12.82;3.10;;;7.00;70.40;;;;;;5049998;28;20053;-76
2021/03/22 07:42:26;;;;;;;15.10;3.25;;;7.10;69.70;;;;;;5041035;28;20041;-76
2021/03/22 07:45:31;;;;;;;23.33;4.07;;;7.20;69.90;;;;;;5057054;28;20440;-77
2021/03/22 07:48:19;;;;;;;13.80;3.60;;;7.00;70.30;;;;;;5030303;28;20041;-75
2021/03/22 07:51:22;;;;;;;20.75;4.00;;;7.00;70.60;;;;;;5043807;28;20147;-76
2021/03/22 07:53:57;;;;;;;14.57;3.63;;;7.20;70.60;;;;;;5042566;28;20424;-74
2021/03/22 07:56:48;;;;;;;13.63;3.85;;;7.40;69.40;;;;;;5042163;28;20463;-76
2021/03/22 07:59:23;;;;;;;16.15;3.60;;;7.50;69.30;;;;;;5033905;28;20072;-75
2021/03/22 08:01:57;;;;;;;18.60;3.60;;;7.40;69.40;;;;;;5076465;28;20098;-75
2021/03/22 08:05:01;;;;;;;15.50;3.70;;;7.40;69.40;;;;;;5044063;28;20053;-75
2021/03/22 08:07:35;;;;;;;20.67;3.95;;;7.60;69.20;;;;;;5046344;28;20041;-76
2021/03/22 08:10:01;;;;;;;8.50;3.00;;;7.70;68.80;;;;;;5038859;28;20092;-76
2021/03/22 08:12:39;;;;;;;11.82;3.65;;;7.70;68.60;;;;;;5045235;28;20436;-76
2021/03/22 08:15:18;;;;;;;22.48;4.60;;;7.90;68.00;;;;;;5044166;28;20045;-76
2021/03/22 08:18:17;;;;;;;9.10;3.75;;;8.00;67.90;;;;;;5046248;28;20118;-76
2021/03/22 08:21:18;;;;;;;20.70;4.55;;;8.20;67.30;;;;;;5037508;28;20086;-77
2021/03/22 08:23:50;;;;;;;12.13;3.30;;;8.30;68.60;;;;;;5031843;28;20052;-76
2021/03/22 08:26:38;;;;;;;25.60;4.00;;;8.30;66.70;;;;;;5046868;28;20077;-76
2021/03/22 08:29:30;;;;;;;15.05;3.63;;;8.10;67.10;;;;;;5072463;28;20056;-76
2021/03/22 08:32:04;;;;;;;14.15;4.07;;;8.20;67.00;;;;;;5036845;28;20057;-76
2021/03/22 08:34:39;;;;;;;12.45;3.80;;;8.30;66.50;;;;;;5051656;28;20049;-75
2021/03/22 08:37:24;;;;;;;13.52;3.38;;;8.10;66.60;;;;;;5041769;28;20480;-76
2021/03/22 08:40:02;;;;;;;17.80;3.75;;;8.10;67.00;;;;;;5037541;28;20228;-76
2021/03/22 08:42:52;;;;;;;15.80;3.35;;;8.10;66.80;;;;;;5049533;28;20052;-76
2021/03/22 08:45:32;;;;;;;14.55;3.58;;;8.00;67.40;;;;;;5072463;28;20201;-76
2021/03/22 08:48:15;;;;;;;13.05;3.70;;;8.20;66.90;;;;;;5045594;28;20330;-77
2021/03/22 08:50:41;;;;;;;20.27;4.53;;;8.20;67.00;;;;;;5036905;28;20462;-76
2021/03/22 08:53:16;;;;;;;17.33;4.18;;;8.40;67.60;;;;;;5055010;28;20041;-75
2021/03/22 08:55:47;;;;;;;16.17;4.07;;;8.20;67.30;;;;;;5041743;28;20049;-76
2021/03/22 08:58:30;;;;;;;16.38;4.05;;;8.60;67.40;;;;;;5041743;28;20049;-75
2021/03/22 09:01:26;;;;;;;13.50;4.07;;;8.60;65.70;;;;;;5038715;28;20454;-75
2021/03/22 09:03:54;;;;;;;11.10;3.55;;;8.50;65.10;;;;;;5040084;28;20046;-75
2021/03/22 09:06:27;;;;;;;15.63;3.90;;;8.40;65.90;;;;;;5046322;28;20421;-76
2021/03/22 09:09:17;;;;;;;20.00;4.47;;;8.50;65.30;;;;;;5048058;28;20053;-76
2021/03/22 09:11:50;;;;;;;12.15;3.97;;;8.60;65.80;;;;;;5032501;28;20077;-75
2021/03/22 09:14:16;;;;;;;11.52;3.90;;;8.60;65.70;;;;;;5041254;28;20049;-75
2021/03/22 09:16:48;;;;;;;13.18;3.55;;;8.40;65.60;;;;;;5042135;28;20102;-75
2021/03/22 09:19:15;;;;;;;8.88;2.97;;;8.40;65.50;;;;;;5043971;28;20046;-76
2021/03/22 09:21:59;;;;;;;10.25;2.97;;;8.60;65.60;;;;;;5040162;28;20445;-77
2021/03/22 09:27:16;;;;;;;11.25;3.60;;;8.60;64.80;;;;;;5040783;28;20083;-75
2021/03/22 09:30:20;;;;;;;5.95;2.63;;;8.60;64.20;;;;;;5043790;28;20518;-76
2021/03/22 09:32:47;;;;;;;15.27;2.92;;;8.80;64.40;;;;;;5046892;28;20072;-76
2021/03/22 09:35:15;;;;;;;18.02;3.30;;;8.80;63.60;;;;;;5045213;28;20095;-76
2021/03/22 09:37:59;;;;;;;6.25;2.65;;;8.90;63.70;;;;;;5038099;28;20076;-76
2021/03/22 09:40:26;;;;;;;11.68;2.90;;;8.90;63.10;;;;;;5036828;28;20049;-75
2021/03/22 09:43:19;;;;;;;10.18;2.95;;;8.70;63.20;;;;;;5038221;28;20080;-76
2021/03/22 09:45:55;;;;;;;7.22;2.30;;;8.90;63.00;;;;;;5042415;28;20049;-77
2021/03/22 09:48:31;;;;;;;15.45;3.05;;;8.80;63.00;;;;;;5034882;28;20055;-77
2021/03/22 09:51:01;;;;;;;9.07;3.17;;;8.80;63.30;;;;;;5028900;28;20126;-78
2021/03/22 09:53:50;;;;;;;;;;;8.80;63.10;;;;;;5033350;28;20064;-78
2021/03/22 09:56:37;;;;;;;9.38;2.97;;;9.00;62.80;;;;;;5033514;28;19935;-79
2021/03/22 09:59:37;;;;;;;13.48;2.67;;;8.90;62.70;;;;;;5058063;28;20527;-80
2021/03/22 10:02:41;;;;;;;9.82;2.88;;;8.80;62.60;;;;;;5070206;28;20064;-80
2021/03/22 10:05:15;;;;;;;11.68;3.08;;;8.80;63.10;;;;;;5036731;28;20052;-79
2021/03/22 10:07:49;;;;;;;15.18;3.90;;;8.80;63.30;;;;;;5036726;28;20136;-81
2021/03/22 10:10:40;;;;;;;8.98;3.45;;;8.80;63.40;;;;;;5036867;28;20510;-79
2021/03/22 10:13:42;;;;;;;12.02;3.67;;;8.80;63.50;;;;;;5039945;28;20052;-80
2021/03/22 10:16:22;;;;;;;8.93;3.20;;;8.80;63.70;;;;;;5032965;28;21948;-79
2021/03/22 10:18:50;;;;;;;14.57;3.70;;;9.00;62.90;;;;;;5038468;28;20053;-79
2021/03/22 10:21:27;;;;;;;13.63;2.95;;;9.00;62.00;;;;;;5037267;28;20056;-80
2021/03/22 10:24:01;;;;;;;8.25;3.40;;;9.10;62.30;;;;;;5038935;28;20060;-80
2021/03/22 10:26:44;;;;;;;10.15;2.70;;;9.10;62.20;;;;;;5035815;28;20075;-80
2021/03/22 10:29:19;;;;;;;6.90;2.75;;;9.10;61.50;;;;;;5033567;28;20061;-76
2021/03/22 10:32:03;;;;;;;8.68;2.85;;;8.80;62.40;;;;;;5034152;28;20045;-76
2021/03/22 10:34:40;;;;;;;11.15;3.30;;;8.90;62.30;;;;;;5034507;28;20084;-75
2021/03/22 10:37:39;;;;;;;5.30;2.67;;;9.00;62.30;;;;;;5033580;28;20106;-77
2021/03/22 10:40:23;;;;;;;8.15;2.80;;;9.00;62.00;;;;;;5033286;28;20400;-78
2021/03/22 10:42:54;;;;;;;11.60;3.60;;;9.00;61.80;;;;;;5037588;28;20561;-74
2021/03/22 10:45:24;;;;;;;9.25;3.50;;;9.00;61.30;;;;;;5033697;28;20447;-75
2021/03/22 10:47:57;;;;;;;9.10;2.97;;;9.10;61.40;;;;;;5032199;28;20052;-78
2021/03/22 10:50:26;;;;;;;10.95;3.40;;;9.20;61.10;;;;;;5034006;28;20092;-78
2021/03/22 10:53:12;;;;;;;11.18;3.15;;;9.40;60.80;;;;;;5035800;28;20063;-77
2021/03/22 10:55:48;;;;;;;10.40;3.03;;;9.50;61.00;;;;;;5062144;28;20139;-79
2021/03/22 10:58:32;;;;;;;8.43;2.72;;;9.40;60.80;;;;;;5031004;28;20440;-76
2021/03/22 11:01:08;;;;;;;9.10;3.00;;;9.10;61.50;;;;;;5048207;28;20045;-77
2021/03/22 11:03:36;;;;;;;8.32;3.65;;;8.90;62.30;;;;;;5042562;28;20049;-78
2021/03/22 11:06:29;;;;;;;9.25;2.80;;;8.90;62.50;;;;;;5041383;28;20477;-78
2021/03/22 11:08:59;;;;;;;14.02;4.18;;;8.90;62.30;;;;;;5033274;28;20050;-78
2021/03/22 11:11:28;;;;;;;;;;;8.80;62.20;;;;;;5039080;28;20041;-76
2021/03/22 11:13:55;;;;;;;9.45;3.35;;;8.90;62.30;;;;;;5042960;28;19969;-78
2021/03/22 11:16:37;;;;;;;6.35;2.65;;;8.80;62.50;;;;;;5044510;28;20045;-77
2021/03/22 11:19:44;;;;;;;9.50;3.80;;;8.80;62.50;;;;;;5041611;28;20132;-77
2021/03/22 11:22:29;;;;;;;10.20;2.85;;;8.90;61.80;;;;;;5044641;28;20044;-79
2021/03/22 11:24:57;;;;;;;7.75;3.20;;;8.90;62.10;;;;;;5045445;28;20071;-76
2021/03/22 11:27:26;;;;;;;9.35;3.40;;;9.10;62.30;;;;;;5037661;28;20484;-76
2021/03/22 11:30:03;;;;;;;12.25;3.35;;;8.90;62.50;;;;;;5039069;28;20450;-76
2021/03/22 11:32:34;;;;;;;11.07;3.45;;;8.90;62.80;;;;;;5047040;28;20075;-76
2021/03/22 11:35:23;;;;;;;7.78;2.80;;;8.80;63.60;;;;;;5080453;28;20045;-76
2021/03/22 11:37:53;;;;;;;7.80;2.60;;;8.80;63.70;;;;;;5045529;28;20049;-78
2021/03/22 11:40:24;;;;;;;7.28;2.60;;;9.00;62.40;;;;;;5036521;28;20483;-76
2021/03/22 11:43:17;;;;;;;9.98;2.13;;;9.00;61.40;;;;;;5043410;28;20091;-77
2021/03/22 11:45:45;;;;;;;4.93;2.03;;;9.10;60.70;;;;;;5037648;28;20053;-77
2021/03/22 11:48:21;;;;;;;5.82;2.33;;;9.40;60.40;;;;;;5046596;28;20047;-76
2021/03/22 11:50:54;;;;;;;9.65;2.75;;;9.50;59.80;;;;;;5048531;28;20127;-78
2021/03/22 11:53:22;;;;;;;8.45;3.10;;;9.60;59.30;;;;;;5040738;28;20057;-76
2021/03/22 11:56:16;;;;;;;5.43;2.42;;;9.60;59.00;;;;;;5046492;28;20124;-76
2021/03/22 11:58:47;;;;;;;7.45;2.65;;;9.50;59.30;;;;;;5032932;28;20115;-76
2021/03/22 12:01:20;;;;;;;9.50;2.75;;;9.20;59.90;;;;;;5042993;28;20084;-75
2021/03/22 12:04:04;;;;;;;9.65;3.10;;;9.10;60.30;;;;;;5049009;28;20053;-77
2021/03/22 12:06:33;;;;;;;4.35;2.53;;;9.20;60.20;;;;;;5048040;28;20453;-77
2021/03/22 12:09:10;;;;;;;7.97;2.83;;;8.90;60.40;;;;;;5045299;28;20045;-75
2021/03/22 12:11:36;;;;;;;5.45;2.70;;;8.90;60.60;;;;;;5040495;28;20710;-76
2021/03/22 12:14:02;;;;;;;8.43;3.08;;;8.90;60.80;;;;;;5044780;28;20084;-76
2021/03/22 12:16:32;;;;;;;9.43;2.80;;;9.00;60.50;;;;;;5043609;28;20069;-77
2021/03/22 12:19:06;;;;;;;5.90;2.70;;;9.00;60.40;;;;;;5047072;28;20133;-76
2021/03/22 12:21:32;;;;;;;7.72;2.30;;;9.20;60.00;;;;;;5042946;28;20080;-77
2021/03/22 12:24:00;;;;;;;6.85;2.20;;;9.30;59.60;;;;;;5039294;28;20088;-77
2021/03/22 12:26:29;;;;;;;9.23;2.80;;;9.30;59.20;;;;;;5045454;28;20380;-75
2021/03/22 12:29:00;;;;;;;4.22;2.40;;;9.30;59.20;;;;;;5036174;28;20045;-74
2021/03/22 12:31:30;;;;;;;6.28;2.65;;;9.40;59.10;;;;;;5042248;28;20053;-82
2021/03/22 12:33:58;;;;;;;3.85;2.20;;;9.30;58.60;;;;;;5041858;28;20053;-79
2021/03/22 12:36:24;;;;;;;6.53;2.40;;;9.40;59.00;;;;;;5052407;28;20045;-79
2021/03/22 12:38:51;;;;;;;4.78;2.17;;;9.40;59.20;;;;;;5049093;28;20472;-79
2021/03/22 12:41:26;;;;;;;7.10;2.15;;;9.40;58.60;;;;;;5032122;28;20041;-78
2021/03/22 12:43:52;;;;;;;6.40;2.40;;;9.30;58.20;;;;;;5047784;28;20037;-78
2021/03/22 12:46:19;;;;;;;5.65;1.83;;;9.30;58.30;;;;;;5040888;28;20152;-79
2021/03/22 12:48:46;;;;;;;8.02;2.10;;;9.40;58.30;;;;;;5040681;28;20135;-79
2021/03/22 12:51:12;;;;;;;7.80;2.10;;;9.50;58.30;;;;;;5037143;28;20144;-78
2021/03/22 12:53:40;;;;;;;7.07;1.88;;;9.50;58.00;;;;;;5036259;28;20189;-78
2021/03/22 12:56:06;;;;;;;6.05;1.98;;;9.60;57.90;;;;;;5037035;28;20049;-79
2021/03/22 12:58:33;;;;;;;4.80;2.17;;;9.60;57.80;;;;;;5038041;28;20072;-79
2021/03/22 13:00:59;;;;;;;6.63;2.70;;;9.60;58.30;;;;;;5041226;28;20429;-78
2021/03/22 13:03:27;;;;;;;6.10;2.47;;;9.50;58.70;;;;;;5041020;28;20510;-79
2021/03/22 13:05:55;;;;;;;9.57;2.65;;;9.40;58.90;;;;;;5038270;28;20071;-79
2021/03/22 13:08:25;;;;;;;5.82;2.58;;;9.40;58.60;;;;;;5042520;28;20045;-79
2021/03/22 13:10:52;;;;;;;6.70;2.40;;;9.40;58.90;;;;;;5039366;28;20060;-79
2021/03/22 13:13:19;;;;;;;10.77;2.38;;;9.30;59.30;;;;;;5040450;28;20135;-79
2021/03/22 13:15:52;;;;;;;6.22;2.72;;;9.30;59.00;;;;;;5035100;28;20049;-78
2021/03/22 13:18:28;;;;;;;6.47;2.22;;;9.30;59.00;;;;;;5043749;28;20049;-77
2021/03/22 13:20:59;;;;;;;7.85;2.33;;;9.20;59.00;;;;;;5037828;28;20076;-78
2021/03/22 13:23:27;;;;;;;4.95;2.13;;;9.20;59.30;;;;;;5043557;28;20461;-78
2021/03/22 13:25:55;;;;;;;3.70;2.20;;;9.10;59.50;;;;;;5051843;28;20077;-78
2021/03/22 13:28:29;;;;;;;6.32;2.17;;;9.10;59.80;;;;;;5039100;28;20480;-78
2021/03/22 13:30:58;;;;;;;3.80;2.55;;;9.10;59.90;;;;;;5037961;28;20075;-78